createdAt,value
2019-05-12T00:02:04.071Z,7.59
2019-05-12T00:07:09.822Z,7.55
2019-05-12T00:12:18.288Z,7.71
2019-05-12T00:17:23.482Z,6.86
2019-05-12T00:22:38.070Z,6.52
2019-05-12T00:27:42.693Z,6.47
2019-05-12T00:32:48.269Z,6.48
2019-05-12T00:37:53.784Z,7.30
2019-05-12T00:43:02.111Z,6.43
2019-05-12T00:48:09.204Z,6.61
2019-05-12T00:53:15.464Z,6.62
2019-05-12T00:58:20.936Z,6.25
2019-05-12T01:03:27.990Z,6.68
2019-05-12T01:08:33.890Z,6.32
2019-05-12T01:13:39.428Z,6.29
2019-05-12T01:18:44.893Z,6.57
2019-05-12T01:23:57.041Z,6.67
2019-05-12T01:28:58.168Z,6.70
2019-05-12T01:34:04.816Z,6.58
2019-05-12T01:39:10.385Z,6.72
2019-05-12T01:44:18.219Z,6.30
2019-05-12T01:49:23.400Z,6.37
2019-05-12T01:54:28.939Z,6.64
2019-05-12T01:59:34.449Z,6.36
2019-05-12T02:04:58.815Z,7.01
2019-05-12T02:10:09.112Z,6.68
2019-05-12T02:15:14.721Z,6.96
2019-05-12T02:20:25.080Z,7.33
2019-05-12T02:25:31.931Z,7.24
2019-05-12T02:30:41.440Z,7.61
2019-05-12T02:35:44.937Z,7.80
2019-05-12T02:40:50.480Z,7.62
2019-05-12T02:45:56.000Z,7.71
2019-05-12T02:51:05.376Z,7.75
2019-05-12T02:56:09.999Z,7.94
2019-05-12T03:01:16.335Z,7.70
2019-05-12T03:06:25.272Z,7.72
2019-05-12T03:11:35.393Z,8.03
2019-05-12T03:16:41.032Z,8.07
2019-05-12T03:21:46.477Z,7.92
2019-05-12T03:26:55.319Z,7.69
2019-05-12T03:32:00.043Z,7.75
2019-05-12T03:37:07.576Z,7.88
2019-05-12T03:42:14.518Z,7.89
2019-05-12T03:47:24.771Z,7.08
2019-05-12T03:52:28.639Z,7.15
2019-05-12T03:57:34.734Z,7.59
2019-05-12T04:02:40.444Z,7.76
2019-05-12T04:07:45.936Z,7.63
2019-05-12T04:12:54.664Z,7.33
2019-05-12T04:17:58.670Z,6.89
2019-05-12T04:23:06.977Z,7.39
2019-05-12T04:28:14.761Z,7.11
2019-05-12T04:33:19.868Z,7.69
2019-05-12T04:38:25.439Z,7.12
2019-05-12T04:43:30.984Z,7.49
2019-05-12T04:48:36.545Z,6.99
2019-05-12T04:53:44.839Z,7.62
2019-05-12T04:58:49.297Z,7.12
2019-05-12T05:03:54.821Z,7.78
2019-05-12T05:09:00.299Z,7.29
2019-05-12T05:14:08.296Z,7.57
2019-05-12T05:19:13.998Z,7.63
2019-05-12T05:24:19.587Z,7.49
2019-05-12T05:29:26.938Z,7.60
2019-05-12T05:34:34.285Z,7.94
2019-05-12T05:39:47.596Z,8.15
2019-05-12T05:44:46.852Z,8.26
2019-05-12T05:49:53.993Z,8.56
2019-05-12T05:54:59.482Z,8.84
2019-05-12T06:00:15.973Z,8.79
2019-05-12T06:05:14.475Z,8.61
2019-05-12T06:10:20.185Z,8.84
2019-05-12T06:15:29.807Z,9.11
2019-05-12T06:20:37.468Z,9.15
2019-05-12T06:25:47.358Z,8.90
2019-05-12T06:30:50.281Z,9.25
2019-05-12T06:35:55.900Z,9.43
2019-05-12T06:41:03.606Z,9.51
2019-05-12T06:46:11.748Z,9.40
2019-05-12T06:51:22.955Z,9.91
2019-05-12T06:56:25.165Z,9.26
2019-05-12T07:01:36.644Z,9.55
2019-05-12T07:06:44.106Z,9.94
2019-05-12T07:12:01.568Z,9.31
2019-05-12T07:17:02.828Z,9.82
2019-05-12T07:22:21.751Z,9.34
2019-05-12T07:27:15.590Z,9.22
2019-05-12T07:32:24.569Z,9.84
2019-05-12T07:37:30.131Z,9.44
2019-05-12T07:42:40.214Z,9.08
2019-05-12T07:47:51.455Z,9.46
2019-05-12T07:52:56.997Z,10.14
2019-05-12T07:58:10.277Z,10.32
2019-05-12T08:03:16.168Z,10.01
2019-05-12T08:08:18.239Z,10.10
2019-05-12T08:13:31.292Z,9.65
2019-05-12T08:18:36.768Z,9.46
2019-05-12T08:23:44.534Z,9.99
2019-05-12T08:28:54.528Z,9.63
2019-05-12T08:34:00.238Z,10.04
2019-05-12T08:39:11.822Z,9.68
2019-05-12T08:44:33.906Z,10.14
2019-05-12T08:49:46.058Z,9.88
2019-05-12T08:54:44.347Z,10.00
2019-05-12T08:59:46.888Z,10.99
2019-05-12T09:04:55.562Z,10.32
2019-05-12T09:10:04.137Z,10.27
2019-05-12T09:15:13.625Z,11.43
2019-05-12T09:20:19.676Z,12.25
2019-05-12T09:25:25.329Z,11.48
2019-05-12T09:30:34.035Z,11.12
2019-05-12T09:35:39.665Z,11.47
2019-05-12T09:40:52.846Z,12.16
2019-05-12T09:45:56.522Z,10.91
2019-05-12T09:51:05.848Z,11.62
2019-05-12T09:56:13.733Z,12.43
2019-05-12T10:01:21.154Z,11.93
2019-05-12T10:06:26.806Z,12.10
2019-05-12T10:11:32.972Z,11.55
2019-05-12T10:16:39.479Z,12.35
2019-05-12T10:21:49.032Z,12.50
2019-05-12T10:26:54.191Z,12.46
2019-05-12T10:32:00.189Z,12.13
2019-05-12T10:37:06.542Z,12.32
2019-05-12T10:42:13.698Z,12.77
2019-05-12T10:47:23.778Z,12.87
2019-05-12T10:52:29.369Z,12.05
2019-05-12T10:57:36.888Z,13.33
2019-05-12T11:02:44.646Z,12.58
2019-05-12T11:07:53.957Z,12.79
2019-05-12T11:13:05.779Z,12.64
2019-05-12T11:18:20.723Z,13.33
2019-05-12T11:23:24.488Z,14.29
2019-05-12T11:28:30.568Z,13.16
2019-05-12T11:33:36.713Z,13.31
2019-05-12T11:38:46.620Z,13.29
2019-05-12T11:43:53.560Z,13.12
2019-05-12T11:48:59.843Z,12.91
2019-05-12T11:54:13.653Z,13.02
2019-05-12T11:59:23.735Z,13.16
2019-05-12T12:04:45.681Z,12.79
2019-05-12T12:09:56.218Z,13.47
2019-05-12T12:14:59.005Z,13.94
2019-05-12T12:20:13.936Z,14.22
2019-05-12T12:25:23.503Z,13.94
2019-05-12T12:30:31.179Z,13.98
2019-05-12T12:35:36.902Z,13.84
2019-05-12T12:40:44.125Z,13.71
2019-05-12T12:46:18.260Z,13.54
2019-05-12T12:51:20.705Z,13.78
2019-05-12T12:56:30.066Z,14.72
2019-05-12T13:01:35.818Z,15.61
2019-05-12T13:06:43.675Z,13.68
2019-05-12T13:11:48.704Z,13.45
2019-05-12T13:16:56.004Z,13.88
2019-05-12T13:22:03.738Z,14.16
2019-05-12T13:32:14.919Z,14.55
2019-05-12T13:37:23.070Z,15.41
2019-05-12T13:49:06.660Z,14.21
2019-05-12T13:54:14.350Z,14.66
2019-05-12T13:59:23.470Z,15.34
2019-05-12T14:04:37.247Z,14.66
2019-05-12T14:09:44.221Z,14.54
2019-05-12T14:14:49.876Z,14.84
2019-05-12T14:19:55.470Z,14.71
2019-05-12T14:25:02.204Z,14.37
2019-05-12T14:30:11.456Z,15.41
2019-05-12T14:35:17.659Z,14.35
2019-05-12T14:40:42.850Z,14.51
2019-05-12T14:45:54.170Z,14.48
2019-05-12T14:51:05.535Z,15.33
2019-05-12T14:56:15.177Z,15.20
2019-05-12T15:01:23.957Z,15.21
2019-05-12T15:06:31.330Z,14.23
2019-05-12T15:11:37.129Z,14.38
2019-05-12T15:16:44.878Z,15.27
2019-05-12T15:21:50.410Z,15.12
2019-05-12T15:27:00.692Z,14.37
2019-05-12T15:32:10.037Z,14.94
2019-05-12T15:37:15.864Z,15.13
2019-05-12T15:42:23.506Z,15.22
2019-05-12T15:47:32.259Z,14.84
2019-05-12T15:52:42.341Z,15.50
2019-05-12T15:57:46.342Z,14.70
2019-05-12T16:02:53.422Z,14.36
2019-05-12T16:08:03.636Z,14.68
2019-05-12T16:13:11.041Z,14.85
2019-05-12T16:18:16.761Z,14.52
2019-05-12T16:23:29.648Z,14.55
2019-05-12T16:28:29.919Z,15.06
2019-05-12T16:33:36.538Z,14.35
2019-05-12T16:38:50.002Z,14.13
2019-05-12T16:43:53.741Z,14.38
2019-05-12T16:48:59.566Z,14.03
2019-05-12T16:54:07.439Z,14.18
2019-05-12T16:59:17.172Z,13.80
2019-05-12T17:04:27.758Z,13.80
2019-05-12T17:09:28.370Z,13.81
2019-05-12T17:14:38.675Z,13.89
2019-05-12T17:19:43.320Z,13.91
2019-05-12T17:24:50.897Z,13.76
2019-05-12T17:29:58.338Z,13.57
2019-05-12T17:35:09.875Z,13.79
2019-05-12T17:40:20.071Z,13.78
2019-05-12T17:45:26.522Z,13.42
2019-05-12T17:50:34.591Z,13.60
2019-05-12T17:55:50.596Z,14.00
2019-05-12T18:00:56.233Z,13.55
2019-05-12T18:06:06.244Z,13.84
2019-05-12T18:11:16.068Z,13.27
2019-05-12T18:16:22.681Z,13.26
2019-05-12T18:21:31.747Z,12.70
2019-05-12T18:26:40.521Z,13.34
2019-05-12T18:31:46.396Z,13.71
2019-05-12T18:36:58.134Z,13.77
2019-05-12T18:42:05.866Z,13.24
2019-05-12T18:47:16.348Z,13.43
2019-05-12T18:52:23.450Z,13.61
2019-05-12T18:57:42.837Z,13.37
2019-05-12T19:02:46.391Z,13.47
2019-05-12T19:07:54.333Z,13.42
2019-05-12T19:13:06.759Z,13.35
2019-05-12T19:18:18.091Z,13.32
2019-05-12T19:23:26.944Z,13.41
2019-05-12T19:28:34.529Z,13.02
2019-05-12T19:33:51.599Z,12.99
2019-05-12T19:38:56.922Z,13.25
2019-05-12T19:44:04.095Z,13.05
2019-05-12T19:49:10.757Z,13.27
2019-05-12T19:54:19.347Z,13.12
2019-05-12T19:59:26.410Z,13.03
2019-05-12T20:04:36.546Z,13.03
2019-05-12T20:09:54.960Z,13.03
2019-05-12T20:14:56.882Z,13.04
2019-05-12T20:20:01.375Z,12.84
2019-05-12T20:25:08.704Z,12.87
2019-05-12T20:30:20.966Z,12.81
2019-05-12T20:35:24.451Z,12.96
2019-05-12T20:40:32.094Z,12.98
2019-05-12T20:45:42.299Z,12.76
2019-05-12T20:50:51.696Z,12.91
2019-05-12T20:55:58.759Z,12.92
2019-05-12T21:01:08.710Z,12.56
2019-05-12T21:06:18.433Z,12.63
2019-05-12T21:11:24.478Z,12.29
2019-05-12T21:16:34.459Z,12.44
2019-05-12T21:21:41.738Z,12.54
2019-05-12T21:26:47.462Z,12.39
2019-05-12T21:31:53.206Z,12.34
2019-05-12T21:37:04.609Z,12.58
2019-05-12T21:42:15.289Z,12.16
2019-05-12T21:47:24.394Z,11.99
2019-05-12T21:52:37.253Z,12.29
2019-05-12T21:57:37.245Z,12.28
2019-05-12T22:02:43.102Z,11.68
2019-05-12T22:07:48.777Z,12.02
2019-05-12T22:12:54.773Z,11.95
2019-05-12T22:18:00.333Z,12.01
2019-05-12T22:23:11.774Z,11.99
2019-05-12T22:28:15.627Z,12.01
2019-05-12T22:33:21.398Z,11.91
2019-05-12T22:38:26.879Z,11.64
2019-05-12T22:43:40.840Z,11.85
2019-05-12T22:48:40.786Z,11.59
2019-05-12T22:53:46.871Z,11.63
2019-05-12T22:59:00.231Z,11.55
2019-05-12T23:04:00.225Z,11.43
2019-05-12T23:09:10.408Z,11.38
2019-05-12T23:14:20.730Z,11.43
2019-05-12T23:19:23.587Z,11.19
2019-05-12T23:24:30.298Z,11.20
2019-05-12T23:29:45.261Z,11.35
2019-05-12T23:34:54.072Z,11.11
2019-05-12T23:40:00.293Z,11.28
2019-05-12T23:45:06.418Z,10.92
2019-05-12T23:50:14.109Z,11.06
2019-05-12T23:55:20.032Z,10.92
